nws-alerts: Checking more than four warning/county codes can delay the loading of your pages. You should use a cron job to get the data.

Nearby METAR Reports

 

KOXC - Oxford/Waterbury, Connecticut, USA
Distance from station: NW 7mi, 11km
Updated: 04/23/2021 9:51am
Clear
Clear
 Wind from W
Wind: W 10 mph , 17 km/h, Gust: 18 mph , 30 km/h
Temperature: 43°F , 6°C
Wind Chill: 37°F , 3°C
Dew Point: 21°F , -6°C
Humidity: 42%
Barometer: 29.95 inHg , 1014.2 hPa
Clouds: Clear
Visibility: 10 miles , 16 km
2021/04/23 13:51 KOXC 231351Z 28009G16KT 250V310 10SM CLR 06/M06 A2995 RMK AO2 SLP161 T00611056
KHVN - New Haven/Tweed, Connecticut, USA
Distance from station: SE 13mi, 20km
Updated: 04/23/2021 9:53am
Clear
Clear
 Wind from W
Wind: W 17 mph , 28 km/h, Gust: 25 mph , 41 km/h
Temperature: 48°F , 9°C
Wind Chill: 42°F , 6°C
Dew Point: 27°F , -3°C
Humidity: 43%
Barometer: 29.96 inHg , 1014.6 hPa
Clouds: Clear
Visibility: 10 miles , 16 km
2021/04/23 13:53 KHVN 231353Z 27015G22KT 10SM CLR 09/M03 A2996 RMK AO2 SLP146 T00941033
 
KMMK - Meriden, Connecticut, USA
Distance from station: NE 13mi, 21km
Updated: 04/23/2021 9:53am
Clear
Clear
 Wind from W
Wind: W 12 mph , 19 km/h, Gust: 20 mph , 31 km/h
Temperature: 46°F , 8°C
Wind Chill: 40°F , 4°C
Dew Point: 19°F , -7°C
Humidity: 34%
Barometer: 29.95 inHg , 1014.2 hPa
Clouds: Clear
Visibility: 10 miles , 16 km
2021/04/23 13:53 KMMK 231353Z AUTO 28010G17KT 10SM CLR 08/M07 A2995 RMK AO2 SLP142 T00831067
KBDR - Bridgeport, Connecticut, USA
Distance from station: SSW 17mi, 27km
Updated: 04/23/2021 9:52am
Clear
Clear
 Wind from W
Wind: W 18 mph , 30 km/h, Gust: 24 mph , 39 km/h
Temperature: 46°F , 8°C
Wind Chill: 39°F , 4°C
Dew Point: 21°F , -6°C
Humidity: 37%
Barometer: 29.99 inHg , 1015.6 hPa
Clouds: Clear
Visibility: 10 miles , 16 km
2021/04/23 13:52 KBDR 231352Z 27016G21KT 10SM CLR 08/M06 A2999 RMK AO2 SLP154 T00831056
 
KDXR - Danbury, Connecticut, USA
Distance from station: W 23mi, 38km
Updated: 04/23/2021 9:53am
Clear
Clear
 Wind from WNW
Wind: WNW 10 mph , 17 km/h, Gust: 21 mph , 33 km/h
Temperature: 46°F , 8°C
Wind Chill: 41°F , 5°C
Dew Point: 21°F , -6°C
Humidity: 37%
Barometer: 29.98 inHg , 1015.2 hPa
Clouds: Clear
Visibility: 10 miles , 16 km
2021/04/23 13:53 KDXR 231353Z 30009G18KT 10SM CLR 08/M06 A2998 RMK AO2 SLP154 T00781056